Time;durP1;ratioP1;P1;durP2;ratioP2;P2;SDS_P1;SDS_P2;PMS_P1;PMS_P2;Temp;Humidity;BMP_temperature;BMP_pressure;BME280_temperature;BME280_humidity;BME280_pressure;Samples;Min_cycle;Max_cycle;Signal;HPM_P1;HPM_P2
2021/09/28 00:01:37;;;;;;;1.40;1.10;;;15.40;99.90;;;;;;4879824;29;20463;-76
2021/09/28 00:04:03;;;;;;;1.10;1.00;;;15.40;99.90;;;;;;4880050;29;20498;-76
2021/09/28 00:06:31;;;;;;;1.30;1.00;;;15.40;99.90;;;;;;4880076;29;20471;-75
2021/09/28 00:08:58;;;;;;;1.53;1.00;;;15.30;99.90;;;;;;4879587;29;20527;-75
2021/09/28 00:11:25;;;;;;;1.73;1.00;;;15.30;99.90;;;;;;4879572;29;20562;-75
2021/09/28 00:13:52;;;;;;;1.00;0.90;;;15.20;99.90;;;;;;4879892;29;20499;-76
2021/09/28 00:16:19;;;;;;;1.20;1.10;;;15.10;99.90;;;;;;4879686;29;20828;-75
2021/09/28 00:18:46;;;;;;;1.10;1.00;;;15.10;99.90;;;;;;4879512;29;20468;-75
2021/09/28 00:21:12;;;;;;;1.67;1.03;;;15.10;99.90;;;;;;4879547;29;20463;-76
2021/09/28 00:23:40;;;;;;;1.30;1.20;;;15.00;99.90;;;;;;4879770;29;20491;-75
2021/09/28 00:26:07;;;;;;;1.10;1.00;;;15.10;99.90;;;;;;4879514;29;20866;-76
2021/09/28 00:28:34;;;;;;;1.30;0.90;;;15.00;99.90;;;;;;4879191;29;20463;-75
2021/09/28 00:31:01;;;;;;;3.73;1.00;;;15.00;99.90;;;;;;4879486;29;20583;-76
2021/09/28 00:33:28;;;;;;;1.20;1.07;;;14.90;99.90;;;;;;4879369;29;20523;-75
2021/09/28 00:35:55;;;;;;;1.20;1.10;;;14.90;99.90;;;;;;4879647;29;20467;-75
2021/09/28 00:38:21;;;;;;;1.60;1.10;;;14.80;99.90;;;;;;4878838;29;20474;-75
2021/09/28 00:40:49;;;;;;;1.40;1.20;;;14.80;99.90;;;;;;4879472;29;20494;-75
2021/09/28 00:43:16;;;;;;;2.00;1.53;;;14.80;99.90;;;;;;4878925;29;20954;-76
2021/09/28 00:45:43;;;;;;;1.10;1.00;;;14.70;99.90;;;;;;4879493;29;20471;-75
2021/09/28 00:48:10;;;;;;;1.40;1.30;;;14.70;99.90;;;;;;4878620;29;20474;-75
2021/09/28 00:50:37;;;;;;;1.80;1.03;;;14.70;99.90;;;;;;4879256;29;20478;-76
2021/09/28 00:53:04;;;;;;;1.17;1.07;;;14.60;99.90;;;;;;4877793;29;20491;-75
2021/09/28 00:55:31;;;;;;;1.60;1.40;;;14.60;99.90;;;;;;4879009;29;20498;-75
2021/09/28 00:58:05;;;;;;;1.30;1.10;;;14.60;99.90;;;;;;4878506;29;20475;-74
2021/09/28 01:00:32;;;;;;;1.43;1.10;;;14.50;99.90;;;;;;4879082;29;20947;-75
2021/09/28 01:03:00;;;;;;;1.47;1.10;;;14.50;99.90;;;;;;4950885;23;20539;-76
2021/09/28 01:05:28;;;;;;;1.83;1.30;;;14.40;99.90;;;;;;4860899;29;20540;-76
2021/09/28 01:07:54;;;;;;;1.30;1.10;;;14.40;99.90;;;;;;4859577;29;20468;-76
2021/09/28 01:10:21;;;;;;;2.53;1.47;;;14.30;99.90;;;;;;4860255;29;20464;-76
2021/09/28 01:12:48;;;;;;;2.30;1.13;;;14.20;99.90;;;;;;4859961;29;20492;-76
2021/09/28 01:15:16;;;;;;;1.80;1.40;;;14.20;99.90;;;;;;4859877;29;20489;-76
2021/09/28 01:17:44;;;;;;;2.00;1.27;;;14.10;99.90;;;;;;4859805;29;20478;-76
2021/09/28 01:20:11;;;;;;;2.50;1.60;;;14.10;99.90;;;;;;4859859;29;20475;-76
2021/09/28 01:22:40;;;;;;;2.93;1.10;;;14.00;99.90;;;;;;4860086;29;20464;-76
2021/09/28 01:25:07;;;;;;;1.57;1.27;;;13.90;99.90;;;;;;4859531;29;20515;-76
2021/09/28 01:27:37;;;;;;;2.20;1.30;;;13.90;99.90;;;;;;4859715;29;20480;-75
2021/09/28 01:30:05;;;;;;;1.87;1.30;;;13.80;99.90;;;;;;4859350;29;20503;-76
2021/09/28 01:32:32;;;;;;;3.63;1.37;;;13.80;99.90;;;;;;4859764;29;20499;-76
2021/09/28 01:34:59;;;;;;;2.67;1.30;;;13.70;99.90;;;;;;4859615;29;20980;-76
2021/09/28 01:37:25;;;;;;;4.13;1.50;;;13.70;99.90;;;;;;4859659;29;20495;-75
2021/09/28 01:39:53;;;;;;;5.00;1.43;;;13.70;99.90;;;;;;4859111;29;20468;-76
2021/09/28 01:42:20;;;;;;;2.90;1.40;;;13.60;99.90;;;;;;4859528;29;20472;-74
2021/09/28 01:44:48;;;;;;;2.17;1.27;;;13.60;99.90;;;;;;4859368;29;20515;-76
2021/09/28 01:47:14;;;;;;;2.53;1.83;;;13.60;99.90;;;;;;4859336;29;20476;-75
2021/09/28 01:49:41;;;;;;;5.30;1.40;;;13.60;99.90;;;;;;4859127;29;20979;-76
2021/09/28 01:52:08;;;;;;;2.20;1.20;;;13.60;99.90;;;;;;4859090;29;20849;-76
2021/09/28 01:54:35;;;;;;;4.00;1.83;;;13.60;99.90;;;;;;4859195;29;20496;-75
2021/09/28 01:57:04;;;;;;;1.60;1.40;;;13.60;99.90;;;;;;4859041;29;20877;-75
2021/09/28 01:59:31;;;;;;;2.93;1.50;;;13.60;99.90;;;;;;4859016;29;20804;-75
2021/09/28 02:01:57;;;;;;;1.83;1.37;;;13.60;99.90;;;;;;4858808;29;20464;-75
2021/09/28 02:04:24;;;;;;;1.67;1.23;;;13.50;99.90;;;;;;4858936;29;20501;-75
2021/09/28 02:06:51;;;;;;;3.40;1.20;;;13.50;99.90;;;;;;4858928;29;20495;-76
2021/09/28 02:09:18;;;;;;;4.97;1.57;;;13.50;99.90;;;;;;4858787;29;20471;-75
2021/09/28 02:11:44;;;;;;;1.90;1.50;;;13.50;99.90;;;;;;4859178;29;20496;-75
2021/09/28 02:14:12;;;;;;;5.47;1.50;;;13.50;99.90;;;;;;4858867;29;20492;-75
2021/09/28 02:16:39;;;;;;;2.73;1.50;;;13.40;99.90;;;;;;4858904;29;20479;-75
2021/09/28 02:19:06;;;;;;;2.53;1.60;;;13.40;99.90;;;;;;4858319;29;20476;-75
2021/09/28 02:21:33;;;;;;;1.70;1.30;;;13.40;99.90;;;;;;4858859;29;20465;-75
2021/09/28 02:23:59;;;;;;;1.80;1.57;;;13.40;99.90;;;;;;4858497;29;20489;-76
2021/09/28 02:26:26;;;;;;;2.03;1.30;;;13.30;99.90;;;;;;4859048;29;20468;-76
2021/09/28 02:28:53;;;;;;;3.40;1.30;;;13.30;99.90;;;;;;4858088;29;20475;-75
2021/09/28 02:31:21;;;;;;;1.27;1.17;;;13.30;99.90;;;;;;4858813;29;20475;-75
2021/09/28 02:33:48;;;;;;;1.73;1.43;;;13.30;99.90;;;;;;4858578;29;20493;-74
2021/09/28 02:36:15;;;;;;;3.90;1.73;;;13.30;99.90;;;;;;4858519;29;20476;-75
2021/09/28 02:38:41;;;;;;;3.10;1.50;;;13.30;99.90;;;;;;4858030;29;20976;-75
2021/09/28 02:41:08;;;;;;;2.33;1.50;;;13.30;99.90;;;;;;4858643;29;20476;-75
2021/09/28 02:43:35;;;;;;;2.50;1.20;;;13.20;99.90;;;;;;4858414;29;20484;-75
2021/09/28 02:46:02;;;;;;;2.43;1.47;;;13.20;99.90;;;;;;4858315;29;20468;-75
2021/09/28 02:48:30;;;;;;;3.53;1.47;;;13.20;99.90;;;;;;4857937;29;20479;-75
2021/09/28 02:50:57;;;;;;;4.60;1.50;;;13.20;99.90;;;;;;4858387;29;20544;-75
2021/09/28 02:53:24;;;;;;;4.60;1.60;;;13.20;99.90;;;;;;4858414;29;21008;-75
2021/09/28 02:55:50;;;;;;;3.20;1.43;;;13.20;99.90;;;;;;4858707;29;20502;-75
2021/09/28 02:58:17;;;;;;;3.80;1.40;;;13.10;99.90;;;;;;4858051;29;20499;-75
2021/09/28 03:00:44;;;;;;;3.43;1.70;;;13.00;99.90;;;;;;4858787;29;20472;-75
2021/09/28 03:03:11;;;;;;;2.30;1.20;;;13.00;99.90;;;;;;4858301;29;20475;-75
2021/09/28 03:05:39;;;;;;;2.97;1.47;;;12.90;99.90;;;;;;4858545;29;20472;-75
2021/09/28 03:08:06;;;;;;;3.73;1.60;;;12.80;99.90;;;;;;4857933;29;20469;-75
2021/09/28 03:10:33;;;;;;;2.67;1.30;;;12.80;99.90;;;;;;4858489;29;20957;-76
2021/09/28 03:13:00;;;;;;;2.43;1.23;;;12.80;99.90;;;;;;4858301;29;20495;-75
2021/09/28 03:15:26;;;;;;;2.77;1.30;;;12.80;99.90;;;;;;4858438;29;20484;-75
2021/09/28 03:17:53;;;;;;;2.03;1.40;;;12.80;99.90;;;;;;4861195;29;20500;-75
2021/09/28 03:20:20;;;;;;;3.23;1.30;;;12.70;99.90;;;;;;4862176;29;20483;-75
2021/09/28 03:22:48;;;;;;;4.17;1.50;;;12.70;99.90;;;;;;4862321;29;20475;-75
2021/09/28 03:25:15;;;;;;;2.70;1.40;;;12.60;99.90;;;;;;4862179;29;20858;-76
2021/09/28 03:27:42;;;;;;;2.77;1.77;;;12.60;99.90;;;;;;4862231;29;20472;-75
2021/09/28 03:30:10;;;;;;;2.33;1.43;;;12.60;99.90;;;;;;4861620;29;20472;-75
2021/09/28 03:32:37;;;;;;;2.63;2.40;;;12.60;99.90;;;;;;4862119;29;20559;-76
2021/09/28 03:35:08;;;;;;;1.97;1.37;;;12.50;99.90;;;;;;4861405;29;20488;-75
2021/09/28 03:37:35;;;;;;;2.27;1.40;;;12.50;99.90;;;;;;4874610;29;20881;-75
2021/09/28 03:40:04;;;;;;;2.45;1.58;;;12.50;99.90;;;;;;4869063;29;20808;-75
2021/09/28 03:42:31;;;;;;;1.57;1.47;;;12.40;99.90;;;;;;4869232;29;20199;-76
2021/09/28 03:44:57;;;;;;;2.80;1.77;;;12.30;99.90;;;;;;4869776;29;20490;-75
2021/09/28 03:47:24;;;;;;;2.53;1.47;;;12.30;99.90;;;;;;4870834;29;20461;-75
2021/09/28 03:49:51;;;;;;;4.40;1.83;;;12.30;99.90;;;;;;4871000;29;20464;-75
2021/09/28 03:52:18;;;;;;;3.87;2.00;;;12.30;99.90;;;;;;4869548;29;20222;-75
2021/09/28 03:54:45;;;;;;;4.40;1.40;;;12.30;99.90;;;;;;4870512;29;20487;-75
2021/09/28 03:57:13;;;;;;;4.07;1.50;;;12.30;99.90;;;;;;4868835;29;20476;-76
2021/09/28 03:59:40;;;;;;;2.10;1.50;;;12.30;99.90;;;;;;4878647;29;20550;-75
2021/09/28 04:02:07;;;;;;;2.70;1.52;;;12.20;99.90;;;;;;4878297;29;20475;-76
2021/09/28 04:04:33;;;;;;;2.72;1.50;;;12.20;99.90;;;;;;4869033;29;20227;-75
2021/09/28 04:07:00;;;;;;;2.25;1.70;;;12.10;99.90;;;;;;4868849;29;20214;-75
2021/09/28 04:09:27;;;;;;;4.78;1.80;;;12.10;99.90;;;;;;4870094;29;20203;-75
2021/09/28 04:11:54;;;;;;;2.20;1.70;;;12.10;99.90;;;;;;4868621;29;20200;-75
2021/09/28 04:14:22;;;;;;;2.23;1.47;;;12.00;99.90;;;;;;4869694;29;20487;-75
2021/09/28 04:16:48;;;;;;;2.20;1.55;;;11.90;99.90;;;;;;4870091;29;20849;-76
2021/09/28 04:19:15;;;;;;;3.22;1.70;;;11.90;99.90;;;;;;4867995;29;20844;-76
2021/09/28 04:21:43;;;;;;;2.22;1.70;;;11.80;99.90;;;;;;4868918;29;20199;-76
2021/09/28 04:24:11;;;;;;;3.17;1.50;;;11.80;99.90;;;;;;4869819;29;20707;-75
2021/09/28 04:26:38;;;;;;;2.75;1.58;;;11.70;99.90;;;;;;4865320;29;20835;-75
2021/09/28 04:29:04;;;;;;;4.43;2.03;;;11.70;99.90;;;;;;4859092;29;20203;-76
2021/09/28 04:31:32;;;;;;;6.70;1.75;;;11.70;99.90;;;;;;4862924;29;20566;-75
2021/09/28 04:33:59;;;;;;;4.05;1.88;;;11.70;99.90;;;;;;4860159;29;20260;-76
2021/09/28 04:36:28;;;;;;;5.70;1.90;;;11.70;99.90;;;;;;4860397;29;20740;-75
2021/09/28 04:39:04;;;;;;;2.72;1.90;;;11.60;99.90;;;;;;4860435;29;20215;-75
2021/09/28 04:41:30;;;;;;;4.20;1.63;;;11.60;99.90;;;;;;4861421;29;20215;-75
2021/09/28 04:43:57;;;;;;;3.85;1.75;;;11.60;99.90;;;;;;4860838;29;20224;-75
2021/09/28 04:46:24;;;;;;;2.33;1.90;;;11.50;99.90;;;;;;4861141;29;20211;-76
2021/09/28 04:48:53;;;;;;;2.08;1.60;;;11.40;99.90;;;;;;4860232;29;20344;-75
2021/09/28 04:51:19;;;;;;;3.22;2.00;;;11.40;99.90;;;;;;4861128;29;20222;-75
2021/09/28 04:53:46;;;;;;;2.10;1.70;;;11.30;99.90;;;;;;4860742;29;20239;-75
2021/09/28 04:56:13;;;;;;;3.65;1.58;;;11.30;99.90;;;;;;4860815;29;20219;-75
2021/09/28 04:58:40;;;;;;;2.92;1.70;;;11.20;99.90;;;;;;4860218;29;20223;-75
2021/09/28 05:01:07;;;;;;;3.33;2.00;;;11.20;99.90;;;;;;4860739;29;20219;-75
2021/09/28 05:03:34;;;;;;;2.08;1.73;;;11.20;99.90;;;;;;4860486;29;20235;-75
2021/09/28 05:06:02;;;;;;;4.65;2.00;;;11.20;99.90;;;;;;4860521;29;20691;-75
2021/09/28 05:08:28;;;;;;;2.20;2.00;;;11.20;99.90;;;;;;4860320;29;20218;-75
2021/09/28 05:10:55;;;;;;;5.28;2.05;;;11.20;99.90;;;;;;4860280;29;20208;-75
2021/09/28 05:13:22;;;;;;;2.50;1.67;;;11.10;99.90;;;;;;4860446;29;20231;-75
2021/09/28 05:15:49;;;;;;;2.60;1.70;;;11.10;99.90;;;;;;4860471;29;20263;-75
2021/09/28 05:18:15;;;;;;;2.35;2.15;;;11.00;99.90;;;;;;4860109;29;20220;-75
2021/09/28 05:20:42;;;;;;;2.30;1.88;;;10.90;99.90;;;;;;4860246;29;20299;-75
2021/09/28 05:23:10;;;;;;;2.95;1.98;;;11.00;99.90;;;;;;4860319;29;20215;-75
2021/09/28 05:25:37;;;;;;;3.22;1.95;;;10.90;99.90;;;;;;4860248;29;20219;-75
2021/09/28 05:28:05;;;;;;;5.03;2.10;;;11.00;99.90;;;;;;4860100;29;20211;-76
2021/09/28 05:30:31;;;;;;;2.72;1.67;;;11.00;99.90;;;;;;4860637;29;20204;-77
2021/09/28 05:32:58;;;;;;;2.03;1.60;;;11.00;99.90;;;;;;4861099;29;20234;-77
2021/09/28 05:35:25;;;;;;;5.05;2.03;;;10.90;99.90;;;;;;4860771;29;20232;-77
2021/09/28 05:37:52;;;;;;;3.33;2.10;;;10.90;99.90;;;;;;4860859;29;20212;-75
2021/09/28 05:40:21;;;;;;;2.33;1.92;;;10.80;99.90;;;;;;4859747;29;20218;-77
2021/09/28 05:42:47;;;;;;;3.65;2.60;;;10.80;99.90;;;;;;4859782;29;20208;-77
2021/09/28 05:45:14;;;;;;;3.60;1.75;;;10.80;99.90;;;;;;4859924;29;20234;-77
2021/09/28 05:47:41;;;;;;;2.33;1.75;;;10.80;99.90;;;;;;4859639;29;20208;-77
2021/09/28 05:50:09;;;;;;;5.25;2.25;;;10.70;99.90;;;;;;4859516;29;20212;-77
2021/09/28 05:52:37;;;;;;;2.60;2.10;;;10.80;99.90;;;;;;4859812;29;20211;-77
2021/09/28 05:55:04;;;;;;;2.85;1.80;;;10.80;99.90;;;;;;4859844;29;20260;-77
2021/09/28 05:57:32;;;;;;;3.70;2.00;;;10.80;99.90;;;;;;4859703;29;20231;-77
2021/09/28 05:59:59;;;;;;;3.97;2.00;;;10.90;99.90;;;;;;4859237;29;20667;-77
2021/09/28 06:02:26;;;;;;;4.80;2.50;;;10.90;99.90;;;;;;4859374;29;20219;-77
2021/09/28 06:04:52;;;;;;;2.28;1.95;;;11.00;99.90;;;;;;4859526;29;20584;-76
2021/09/28 06:07:21;;;;;;;5.07;2.10;;;11.10;99.90;;;;;;4859364;29;20683;-77
2021/09/28 06:09:48;;;;;;;4.35;1.80;;;11.10;99.90;;;;;;4858987;29;20208;-77
2021/09/28 06:12:16;;;;;;;2.20;1.70;;;11.20;99.90;;;;;;4859362;29;20688;-77
2021/09/28 06:14:44;;;;;;;2.55;2.00;;;11.20;99.90;;;;;;4859191;29;20236;-76
2021/09/28 06:17:11;;;;;;;2.88;1.88;;;11.20;99.90;;;;;;4859342;29;20215;-77
2021/09/28 06:19:38;;;;;;;2.35;1.90;;;11.20;99.90;;;;;;4859172;29;20211;-77
2021/09/28 06:22:06;;;;;;;4.82;2.05;;;11.30;99.90;;;;;;4859432;29;20581;-77
2021/09/28 06:24:33;;;;;;;2.83;1.90;;;11.40;99.90;;;;;;4859026;29;20731;-77
2021/09/28 06:27:01;;;;;;;2.97;2.25;;;11.40;99.90;;;;;;4859333;29;20223;-77
2021/09/28 06:29:27;;;;;;;2.38;2.08;;;11.40;99.90;;;;;;4858976;29;20651;-77
2021/09/28 06:31:56;;;;;;;6.30;2.10;;;11.40;99.90;;;;;;4859159;29;20218;-77
2021/09/28 06:34:23;;;;;;;2.00;1.85;;;11.50;99.90;;;;;;4858933;29;20227;-77
2021/09/28 06:36:49;;;;;;;3.70;2.10;;;11.60;99.90;;;;;;4859006;29;20215;-76
2021/09/28 06:39:16;;;;;;;2.53;2.03;;;11.70;99.90;;;;;;4858563;29;20211;-77
2021/09/28 06:41:43;;;;;;;2.53;2.00;;;11.80;99.90;;;;;;4859000;29;20207;-77
2021/09/28 06:44:10;;;;;;;2.72;2.35;;;11.90;99.90;;;;;;4858732;29;20726;-77
2021/09/28 06:46:37;;;;;;;3.58;2.53;;;11.90;99.90;;;;;;4858874;29;20215;-77
2021/09/28 06:49:06;;;;;;;2.60;1.90;;;12.00;99.90;;;;;;4858325;29;20218;-77
2021/09/28 06:51:32;;;;;;;4.05;2.40;;;12.10;99.90;;;;;;4858908;29;20215;-77
2021/09/28 06:53:59;;;;;;;2.30;1.60;;;12.30;99.90;;;;;;4858439;29;20232;-77
2021/09/28 06:56:26;;;;;;;4.00;2.00;;;12.40;99.90;;;;;;4858918;29;20464;-77
2021/09/28 06:58:52;;;;;;;6.05;2.50;;;12.50;99.90;;;;;;4858219;29;20216;-77
2021/09/28 07:01:19;;;;;;;3.83;2.30;;;12.70;99.90;;;;;;4858838;29;20596;-77
2021/09/28 07:03:46;;;;;;;4.17;2.27;;;12.80;99.90;;;;;;4907211;23;20521;-72
2021/09/28 07:06:14;;;;;;;4.87;2.17;;;13.00;99.90;;;;;;4914516;29;20454;-72
2021/09/28 07:08:41;;;;;;;2.57;2.27;;;13.20;99.90;;;;;;4914445;29;20953;-72
2021/09/28 07:11:07;;;;;;;2.17;1.93;;;13.40;99.90;;;;;;4914727;29;20466;-71
2021/09/28 07:13:34;;;;;;;2.37;2.17;;;13.70;99.90;;;;;;4914568;29;21031;-71
2021/09/28 07:16:01;;;;;;;3.20;2.23;;;14.00;99.90;;;;;;4914729;29;20881;-72
2021/09/28 07:18:27;;;;;;;6.30;2.90;;;14.30;99.90;;;;;;4914205;29;20496;-72
2021/09/28 07:20:54;;;;;;;4.30;2.20;;;14.50;99.90;;;;;;4914727;29;20473;-71
2021/09/28 07:23:25;;;;;;;3.50;1.90;;;14.70;99.90;;;;;;4914532;29;20473;-71
2021/09/28 07:25:52;;;;;;;2.90;2.07;;;14.80;99.90;;;;;;4914781;29;20470;-72
2021/09/28 07:28:19;;;;;;;5.43;2.30;;;14.80;99.90;;;;;;4914419;29;20611;-71
2021/09/28 07:30:46;;;;;;;3.23;2.30;;;15.00;99.90;;;;;;4914702;29;20464;-71
2021/09/28 07:33:12;;;;;;;4.00;2.57;;;15.10;99.90;;;;;;4914365;29;21004;-72
2021/09/28 07:35:43;;;;;;;3.83;2.57;;;15.20;99.90;;;;;;4914687;29;20477;-70
2021/09/28 07:38:10;;;;;;;4.10;2.37;;;15.30;99.90;;;;;;4914311;29;20565;-70
2021/09/28 07:40:38;;;;;;;4.50;2.40;;;15.40;99.90;;;;;;4914295;29;20473;-71
2021/09/28 07:43:05;;;;;;;5.67;3.53;;;15.60;99.90;;;;;;4914607;29;20470;-71
2021/09/28 07:45:32;;;;;;;3.83;2.50;;;15.70;99.90;;;;;;4914245;29;20486;-72
2021/09/28 07:47:59;;;;;;;4.70;2.30;;;15.70;99.90;;;;;;4914502;29;20469;-71
2021/09/28 07:50:25;;;;;;;8.20;2.77;;;15.80;99.90;;;;;;4914265;29;20528;-71
2021/09/28 07:52:52;;;;;;;5.00;2.40;;;15.80;99.90;;;;;;4914596;29;20843;-71
2021/09/28 07:55:19;;;;;;;6.30;2.53;;;15.80;99.90;;;;;;4914420;29;20500;-71
2021/09/28 07:57:47;;;;;;;3.73;2.53;;;15.90;99.90;;;;;;4914555;29;20840;-71
2021/09/28 08:00:14;;;;;;;2.50;2.07;;;16.10;99.90;;;;;;4913807;29;20525;-72
2021/09/28 08:02:41;;;;;;;4.13;2.60;;;16.20;99.90;;;;;;4915368;29;20497;-71
2021/09/28 08:05:10;;;;;;;4.97;2.80;;;16.20;99.90;;;;;;4917940;29;20492;-71
2021/09/28 08:07:38;;;;;;;2.80;2.47;;;16.20;99.90;;;;;;4917778;29;20529;-72
2021/09/28 08:10:06;;;;;;;4.27;2.30;;;16.00;99.90;;;;;;4917560;29;20525;-72
2021/09/28 08:12:33;;;;;;;3.10;2.50;;;16.00;99.90;;;;;;4917568;29;20560;-72
2021/09/28 08:15:01;;;;;;;5.70;2.60;;;16.00;99.90;;;;;;4917911;29;20892;-72
2021/09/28 08:17:27;;;;;;;3.63;2.87;;;16.20;99.90;;;;;;4917531;29;20469;-72
2021/09/28 08:19:54;;;;;;;4.47;2.53;;;16.20;99.90;;;;;;4917502;29;20474;-72
2021/09/28 08:22:21;;;;;;;8.47;2.97;;;16.40;99.90;;;;;;4917473;29;20476;-72
2021/09/28 08:24:51;;;;;;;5.63;2.40;;;16.60;99.90;;;;;;4917720;29;20838;-72
2021/09/28 08:30:06;;;;;;;5.63;2.13;;;16.60;99.90;;;;;;4917184;29;20445;-72
2021/09/28 08:32:33;;;;;;;5.93;2.70;;;16.40;99.90;;;;;;4917292;29;20845;-72
2021/09/28 08:35:00;;;;;;;4.43;2.33;;;16.30;99.90;;;;;;4917284;29;20871;-72
2021/09/28 08:37:27;;;;;;;2.87;2.03;;;16.40;99.90;;;;;;4917305;29;20473;-72
2021/09/28 08:39:54;;;;;;;3.93;2.17;;;16.70;99.90;;;;;;4916938;29;20493;-72
2021/09/28 08:42:21;;;;;;;5.33;3.17;;;16.80;99.90;;;;;;4917186;29;20466;-72
2021/09/28 08:44:48;;;;;;;4.17;2.20;;;16.80;99.90;;;;;;4917274;29;20848;-70
2021/09/28 08:47:16;;;;;;;6.40;2.63;;;16.60;99.90;;;;;;4917080;29;20826;-72
2021/09/28 08:49:43;;;;;;;4.63;2.20;;;16.30;99.90;;;;;;4916823;29;20476;-72
2021/09/28 08:52:10;;;;;;;4.50;2.40;;;16.30;99.90;;;;;;4917301;29;20472;-72
2021/09/28 08:54:37;;;;;;;2.80;2.20;;;16.40;99.90;;;;;;4916951;29;21006;-72
2021/09/28 08:57:04;;;;;;;3.00;2.67;;;16.40;99.90;;;;;;4917411;29;20476;-72
2021/09/28 08:59:48;;;;;;;3.50;2.47;;;16.40;99.90;;;;;;4916370;29;20469;-72
2021/09/28 09:02:17;;;;;;;6.20;2.83;;;16.40;99.90;;;;;;4916849;29;20466;-72
2021/09/28 09:04:46;;;;;;;4.10;2.60;;;16.50;99.90;;;;;;4916838;29;20488;-72
2021/09/28 09:07:24;;;;;;;3.00;2.20;;;16.70;99.90;;;;;;4916804;29;20462;-72
2021/09/28 09:09:50;;;;;;;4.90;2.93;;;16.80;99.90;;;;;;4916268;29;20465;-72
2021/09/28 09:12:32;;;;;;;5.80;2.53;;;16.70;99.90;;;;;;4916707;29;20891;-72
2021/09/28 09:15:21;;;;;;;6.70;2.50;;;16.60;99.90;;;;;;4915489;29;20497;-71
2021/09/28 09:17:51;;;;;;;3.17;2.60;;;16.30;99.90;;;;;;4916727;29;20967;-72
2021/09/28 09:20:27;;;;;;;3.43;2.37;;;16.10;99.90;;;;;;4916285;29;20469;-72
2021/09/28 09:22:54;;;;;;;5.57;2.43;;;15.90;99.90;;;;;;4916764;29;20521;-72
2021/09/28 09:25:23;;;;;;;3.90;2.40;;;15.70;99.90;;;;;;4916566;29;20884;-72
2021/09/28 09:27:50;;;;;;;3.70;2.43;;;15.80;99.90;;;;;;4916525;29;20466;-72
2021/09/28 09:30:20;;;;;;;3.20;2.30;;;16.20;99.90;;;;;;4915880;29;20461;-72
2021/09/28 09:32:50;;;;;;;4.47;2.20;;;16.60;99.90;;;;;;4916443;29;20477;-72
2021/09/28 09:35:24;;;;;;;5.80;2.47;;;17.20;99.90;;;;;;4916055;29;20497;-72
2021/09/28 09:37:51;;;;;;;2.97;2.13;;;17.60;99.90;;;;;;4916584;29;20468;-72
2021/09/28 09:40:31;;;;;;;3.60;2.67;;;17.90;99.90;;;;;;4915710;29;20480;-72
2021/09/28 09:42:58;;;;;;;7.10;2.27;;;18.30;99.90;;;;;;4916284;29;20470;-72
2021/09/28 09:45:27;;;;;;;2.50;2.20;;;18.60;99.90;;;;;;4915940;29;20556;-72
2021/09/28 09:47:55;;;;;;;4.20;2.50;;;18.90;99.90;;;;;;4916202;29;20586;-72
2021/09/28 09:50:24;;;;;;;7.33;2.57;;;19.10;99.90;;;;;;4915627;29;20470;-72
2021/09/28 09:53:09;;;;;;;4.10;2.20;;;19.10;99.90;;;;;;4916101;29;20838;-72
2021/09/28 09:55:42;;;;;;;3.70;2.37;;;19.40;99.90;;;;;;4915964;29;20493;-71
2021/09/28 09:58:09;;;;;;;2.47;2.10;;;19.60;99.90;;;;;;4915954;29;20466;-72
2021/09/28 10:00:39;;;;;;;4.73;2.60;;;19.70;99.90;;;;;;4915637;29;20477;-72
2021/09/28 10:03:08;;;;;;;4.40;2.50;;;19.80;99.90;;;;;;4915563;29;21008;-71
2021/09/28 10:05:36;;;;;;;4.67;2.70;;;20.00;99.90;;;;;;4915720;29;20979;-72
2021/09/28 10:08:07;;;;;;;6.60;2.63;;;20.20;99.90;;;;;;4915701;29;20470;-72
2021/09/28 10:10:34;;;;;;;6.03;2.60;;;20.30;99.90;;;;;;4915318;29;20469;-72
2021/09/28 10:13:03;;;;;;;3.93;2.43;;;20.50;99.90;;;;;;4915759;29;20472;-72
2021/09/28 10:15:30;;;;;;;3.47;3.00;;;20.50;99.90;;;;;;4915433;29;20592;-72
2021/09/28 10:17:57;;;;;;;3.50;2.47;;;20.60;99.90;;;;;;4915560;29;20470;-71
2021/09/28 10:20:31;;;;;;;3.57;2.63;;;20.80;99.90;;;;;;4915176;29;20466;-72
2021/09/28 10:22:59;;;;;;;3.80;2.40;;;21.00;99.90;;;;;;4915506;29;20493;-71
2021/09/28 10:25:39;;;;;;;2.40;2.13;;;21.00;99.90;;;;;;4915099;29;20481;-72
2021/09/28 10:28:27;;;;;;;2.00;1.80;;;20.90;99.90;;;;;;4915317;29;20934;-72
2021/09/28 10:30:54;;;;;;;2.50;1.80;;;20.80;99.90;;;;;;4915214;29;20469;-72
2021/09/28 10:33:34;;;;;;;3.30;2.33;;;20.80;99.90;;;;;;4914820;29;20468;-72
2021/09/28 10:36:05;;;;;;;3.10;2.30;;;20.80;99.90;;;;;;4915381;29;20544;-72
2021/09/28 10:38:59;;;;;;;4.40;2.10;;;20.70;99.90;;;;;;4914872;29;20478;-72
2021/09/28 10:41:44;;;;;;;2.67;2.37;;;20.40;99.90;;;;;;4915117;29;20474;-72
2021/09/28 10:44:48;;;;;;;2.77;2.30;;;19.90;99.90;;;;;;4915014;29;20517;-72
2021/09/28 10:47:47;;;;;;;3.97;2.77;;;19.60;99.90;;;;;;4915164;29;20555;-72
2021/09/28 10:50:29;;;;;;;4.40;2.43;;;19.20;99.90;;;;;;4914632;29;20561;-72
2021/09/28 10:53:00;;;;;;;3.57;2.73;;;18.80;99.90;;;;;;4915084;29;20477;-71
2021/09/28 10:55:39;;;;;;;2.57;2.30;;;18.90;99.90;;;;;;4914861;29;20500;-72
2021/09/28 10:58:14;;;;;;;5.00;3.00;;;19.10;99.90;;;;;;4915081;29;20472;-71
2021/09/28 11:01:20;;;;;;;4.27;2.50;;;19.60;99.90;;;;;;4914789;29;20461;-72
2021/09/28 11:03:52;;;;;;;3.63;2.40;;;20.00;99.90;;;;;;4914726;29;20850;-71
2021/09/28 11:06:39;;;;;;;5.13;2.40;;;20.20;99.90;;;;;;4914943;29;20494;-70
2021/09/28 11:09:07;;;;;;;3.70;2.40;;;20.40;99.90;;;;;;4914293;29;20466;-72
2021/09/28 11:11:34;;;;;;;4.23;2.20;;;20.50;99.90;;;;;;4914847;29;20469;-72
2021/09/28 11:14:03;;;;;;;10.60;2.77;;;20.70;99.90;;;;;;4914733;29;20485;-71
2021/09/28 11:16:39;;;;;;;3.63;2.00;;;20.80;99.90;;;;;;4914715;29;20479;-72
2021/09/28 11:19:06;;;;;;;3.03;2.10;;;20.90;99.90;;;;;;4914411;29;20493;-72
2021/09/28 11:21:37;;;;;;;2.30;2.10;;;21.30;99.90;;;;;;4914852;29;20484;-72
2021/09/28 11:24:04;;;;;;;6.23;2.90;;;21.70;99.90;;;;;;4914887;29;20492;-71
2021/09/28 11:26:37;;;;;;;3.00;2.40;;;21.60;99.90;;;;;;4914790;29;20505;-71
2021/09/28 11:29:05;;;;;;;2.90;2.30;;;21.10;99.90;;;;;;4914324;29;20462;-72
2021/09/28 11:31:34;;;;;;;2.30;2.00;;;20.50;99.90;;;;;;4914552;29;20472;-72
2021/09/28 11:34:01;;;;;;;3.20;2.03;;;19.90;99.90;;;;;;4914434;29;20501;-72
2021/09/28 11:36:33;;;;;;;5.07;2.17;;;19.50;99.90;;;;;;4914531;29;20489;-72
2021/09/28 11:39:00;;;;;;;3.33;2.10;;;19.30;99.90;;;;;;4917544;29;20473;-72
2021/09/28 11:41:27;;;;;;;3.27;2.30;;;19.70;99.90;;;;;;4918265;29;21158;-72
2021/09/28 11:43:57;;;;;;;2.37;1.90;;;20.20;99.90;;;;;;4918348;29;20493;-71
2021/09/28 11:46:25;;;;;;;2.40;1.70;;;20.80;99.90;;;;;;4918250;29;20469;-71
2021/09/28 11:48:58;;;;;;;4.00;2.47;;;21.20;99.90;;;;;;4917819;29;20812;-72
2021/09/28 11:51:26;;;;;;;2.50;1.80;;;21.50;99.90;;;;;;4918269;29;20470;-71
2021/09/28 11:53:55;;;;;;;2.37;2.10;;;21.80;99.90;;;;;;4918109;29;20493;-72
2021/09/28 11:56:24;;;;;;;2.73;2.43;;;21.80;99.90;;;;;;4918029;29;21039;-72
2021/09/28 11:58:53;;;;;;;2.60;2.03;;;21.90;99.90;;;;;;4917657;29;20843;-72
2021/09/28 12:01:23;;;;;;;2.53;2.17;;;22.20;99.90;;;;;;4918027;29;20488;-72
2021/09/28 12:04:12;;;;;;;3.17;2.13;;;22.30;99.90;;;;;;4917757;29;20850;-72
2021/09/28 12:06:58;;;;;;;4.10;2.23;;;22.50;99.90;;;;;;4917775;29;20504;-72
2021/09/28 12:09:25;;;;;;;5.43;2.13;;;22.70;99.90;;;;;;4917633;29;20889;-72
2021/09/28 12:11:59;;;;;;;2.63;2.10;;;22.80;99.90;;;;;;4917656;29;20477;-72
2021/09/28 12:14:34;;;;;;;6.70;2.00;;;22.90;99.90;;;;;;4917580;29;20911;-72
2021/09/28 12:17:13;;;;;;;3.47;2.50;;;22.90;99.90;;;;;;4917609;29;20469;-72
2021/09/28 12:19:43;;;;;;;4.77;2.40;;;23.00;99.90;;;;;;4917119;29;20952;-72
2021/09/28 12:22:10;;;;;;;3.50;2.37;;;22.90;99.90;;;;;;4917479;29;20508;-70
2021/09/28 12:24:45;;;;;;;2.57;2.37;;;22.90;99.90;;;;;;4917381;29;20489;-72
2021/09/28 12:27:12;;;;;;;2.70;2.50;;;22.90;99.90;;;;;;4917597;29;20852;-72
2021/09/28 12:29:41;;;;;;;3.57;2.80;;;22.50;99.90;;;;;;4917008;29;20465;-72
2021/09/28 12:32:08;;;;;;;3.70;2.13;;;22.40;99.90;;;;;;4917389;29;20465;-72
2021/09/28 12:34:51;;;;;;;3.17;2.17;;;22.60;99.90;;;;;;4917148;29;20879;-72
2021/09/28 12:37:19;;;;;;;3.97;2.53;;;22.90;99.90;;;;;;4917283;29;20465;-72
2021/09/28 12:39:59;;;;;;;2.90;2.10;;;23.00;99.90;;;;;;4916753;29;20473;-72
2021/09/28 12:42:27;;;;;;;3.60;2.40;;;23.10;99.90;;;;;;4917157;29;20470;-72
2021/09/28 12:44:58;;;;;;;3.90;2.60;;;22.50;99.90;;;;;;4917141;29;20488;-71
2021/09/28 12:47:32;;;;;;;4.00;2.70;;;21.90;99.90;;;;;;4917346;29;20474;-72
2021/09/28 12:50:21;;;;;;;3.07;2.73;;;21.30;99.90;;;;;;4916690;29;20469;-72
2021/09/28 12:52:49;;;;;;;2.90;2.57;;;21.00;99.90;;;;;;4916884;29;20473;-71
2021/09/28 12:55:16;;;;;;;4.50;3.00;;;20.80;99.90;;;;;;4917054;29;20489;-72
2021/09/28 12:57:44;;;;;;;5.73;2.83;;;20.60;99.90;;;;;;4917077;29;20473;-72
2021/09/28 13:00:12;;;;;;;5.27;2.73;;;20.40;99.90;;;;;;4916757;29;20474;-71